This is the latest recevied weather packets stored in our database for station/object K9ZOG. If no packets are shown the sender has not sent any weather packets the latest 1 day(s).
| Time | Temp. | Humidity | Pressure | Rain* | Wind** | Luminosity | Snow |
|---|---|---|---|---|---|---|---|
| 1777992555 | 9.44° C | 47% | 1008.5 hPa | 0 mm | 0.89 m/s, 0° | 275 W/m² | - |
| 1777992254 | 9.44° C | 47% | 1008.4 hPa | 0 mm | 1.34 m/s, 293° | 244 W/m² | - |
| 1777991954 | 9.44° C | 46% | 1008.2 hPa | 0 mm | 0.89 m/s, 355° | 219 W/m² | - |
| 1777991653 | 9.44° C | 47% | 1008.1 hPa | 0 mm | 1.79 m/s, 231° | 215 W/m² | - |
| 1777991353 | 9.44° C | 46% | 1008.1 hPa | 0 mm | 1.34 m/s, 352° | 268 W/m² | - |
| 1777991052 | 9.44° C | 45% | 1008.1 hPa | 0 mm | 1.79 m/s, 349° | 262 W/m² | - |
| 1777990755 | 9.44° C | 47% | 1008.1 hPa | 0 mm | 1.79 m/s, 331° | 231 W/m² | - |
| 1777990454 | 9.44° C | 47% | 1008 hPa | 0 mm | 1.34 m/s, 7° | 234 W/m² | - |
| 1777990153 | 9.44° C | 47% | 1008.1 hPa | 0 mm | 1.79 m/s, 336° | 180 W/m² | - |
| 1777989856 | 9.44° C | 46% | 1008 hPa | 0 mm | 1.34 m/s, 303° | 167 W/m² | - |
| 1777989557 | 9.44° C | 47% | 1007.9 hPa | 0 mm | 0 m/s | 191 W/m² | - |
| 1777989257 | 9.44° C | 47% | 1008 hPa | 0 mm | 0.89 m/s, 319° | 203 W/m² | - |
| 1777988957 | 9.44° C | 48% | 1007.7 hPa | 0 mm | 1.34 m/s, 273° | 230 W/m² | - |
| 1777988663 | 8.89° C | 48% | 1007.6 hPa | 0 mm | 2.68 m/s, 337° | 238 W/m² | - |
| 1777988356 | 8.89° C | 49% | 1007.6 hPa | 0 mm | 0.89 m/s, 5° | 211 W/m² | - |
| 1777988065 | 8.89° C | 50% | 1007.4 hPa | 0 mm | 1.34 m/s, 307° | 185 W/m² | - |
| 1777987757 | 8.89° C | 51% | 1007.3 hPa | 0 mm | 0.89 m/s, 7° | 205 W/m² | - |
| 1777987457 | 8.89° C | 52% | 1007.4 hPa | 0 mm | 1.79 m/s, 330° | 197 W/m² | - |
| 1777987155 | 8.89° C | 55% | 1007.4 hPa | 0 mm | 0.45 m/s, 0° | 171 W/m² | - |
| 1777986853 | 8.89° C | 55% | 1007.8 hPa | 0 mm | 1.34 m/s, 340° | 147 W/m² | - |
| 1777986552 | 8.89° C | 55% | 1007.7 hPa | 0 mm | 1.34 m/s, 333° | 156 W/m² | - |
| 1777986253 | 8.33° C | 58% | 1007.5 hPa | 0 mm | 0 m/s | 144 W/m² | - |
| 1777985955 | 8.33° C | 57% | 1007.3 hPa | 0 mm | 1.34 m/s, 332° | 139 W/m² | - |
| 1777985652 | 8.33° C | 57% | 1007.3 hPa | 0 mm | 1.34 m/s, 333° | 130 W/m² | - |
| 1777985353 | 8.33° C | 60% | 1007.1 hPa | 0 mm | 0.89 m/s, 267° | 119 W/m² | - |
* Rain latest hour (hover to see other rain measurements)
** Current wind speed in m/s (hover to see current wind gust speed)